createdAt,value
2017-10-06T00:01:24.168Z,2.30
2017-10-06T00:03:52.036Z,2.45
2017-10-06T00:06:19.903Z,3.05
2017-10-06T00:08:47.872Z,2.62
2017-10-06T00:11:15.740Z,2.50
2017-10-06T00:13:43.607Z,3.10
2017-10-06T00:16:11.475Z,3.22
2017-10-06T00:18:39.343Z,2.53
2017-10-06T00:21:07.209Z,2.70
2017-10-06T00:23:35.076Z,2.53
2017-10-06T00:26:02.943Z,2.15
2017-10-06T00:28:30.811Z,2.60
2017-10-06T00:30:58.678Z,3.08
2017-10-06T00:33:26.546Z,3.28
2017-10-06T00:35:54.413Z,3.10
2017-10-06T00:38:22.280Z,2.10
2017-10-06T00:40:50.147Z,1.90
2017-10-06T00:43:18.014Z,2.08
2017-10-06T00:45:45.882Z,2.28
2017-10-06T00:48:13.750Z,2.05
2017-10-06T00:50:41.617Z,2.85
2017-10-06T00:53:09.483Z,2.45
2017-10-06T00:55:37.351Z,2.28
2017-10-06T00:58:05.194Z,2.58
2017-10-06T01:00:33.086Z,2.40
2017-10-06T01:03:00.954Z,3.10
2017-10-06T01:05:28.820Z,2.50
2017-10-06T01:07:56.687Z,3.65
2017-10-06T01:10:24.560Z,2.55
2017-10-06T01:12:52.422Z,2.20
2017-10-06T01:15:20.290Z,2.42
2017-10-06T01:17:49.079Z,2.42
2017-10-06T01:20:17.049Z,2.85
2017-10-06T01:22:44.916Z,2.40
2017-10-06T01:25:12.783Z,2.50
2017-10-06T01:27:40.650Z,2.47
2017-10-06T01:30:08.518Z,3.00
2017-10-06T01:32:36.384Z,2.33
2017-10-06T01:35:04.252Z,2.40
2017-10-06T01:37:32.120Z,2.17
2017-10-06T01:39:59.985Z,2.83
2017-10-06T01:42:27.854Z,2.62
2017-10-06T01:44:55.721Z,2.20
2017-10-06T01:47:23.590Z,2.00
2017-10-06T01:49:51.456Z,2.25
2017-10-06T01:52:19.324Z,2.30
2017-10-06T01:54:47.190Z,2.83
2017-10-06T01:57:15.059Z,2.10
2017-10-06T01:59:42.929Z,2.78
2017-10-06T02:02:10.798Z,2.03
2017-10-06T02:04:38.664Z,2.53
2017-10-06T02:07:06.528Z,2.67
2017-10-06T02:09:34.396Z,2.42
2017-10-06T02:12:02.267Z,2.70
2017-10-06T02:14:30.134Z,2.00
2017-10-06T02:16:58.001Z,2.50
2017-10-06T02:19:25.863Z,2.62
2017-10-06T02:21:53.735Z,2.50
2017-10-06T02:24:21.621Z,2.80
2017-10-06T02:26:50.285Z,2.60
2017-10-06T02:29:18.152Z,2.67
2017-10-06T02:31:46.123Z,3.58
2017-10-06T02:34:13.990Z,2.65
2017-10-06T02:36:41.856Z,2.58
2017-10-06T02:39:09.724Z,2.37
2017-10-06T02:41:37.592Z,2.45
2017-10-06T02:44:05.460Z,2.30
2017-10-06T02:46:33.325Z,2.25
2017-10-06T02:49:01.195Z,2.40
2017-10-06T02:51:29.060Z,2.45
2017-10-06T02:53:56.928Z,2.80
2017-10-06T02:56:24.796Z,1.87
2017-10-06T02:58:52.662Z,2.10
2017-10-06T03:01:20.537Z,2.55
2017-10-06T03:03:48.400Z,2.70
2017-10-06T03:06:16.264Z,2.42
2017-10-06T03:08:44.142Z,2.20
2017-10-06T03:11:12.102Z,2.85
2017-10-06T03:13:39.968Z,2.20
2017-10-06T03:16:07.836Z,4.18
2017-10-06T03:18:35.703Z,2.80
2017-10-06T03:21:03.571Z,2.53
2017-10-06T03:23:31.459Z,2.30
2017-10-06T03:26:00.022Z,2.80
2017-10-06T03:28:27.889Z,3.35
2017-10-06T03:30:55.757Z,2.92
2017-10-06T03:33:23.624Z,2.85
2017-10-06T03:35:51.492Z,2.55
2017-10-06T03:38:19.359Z,2.60
2017-10-06T03:40:47.226Z,3.00
2017-10-06T03:43:15.093Z,2.75
2017-10-06T03:45:42.961Z,3.10
2017-10-06T03:48:10.828Z,2.72
2017-10-06T03:50:38.696Z,3.03
2017-10-06T03:53:06.562Z,2.60
2017-10-06T03:55:34.429Z,2.50
2017-10-06T03:58:02.297Z,2.40
2017-10-06T04:00:30.165Z,3.12
2017-10-06T04:02:58.032Z,2.20
2017-10-06T04:05:25.899Z,2.55
2017-10-06T04:07:53.767Z,3.10
2017-10-06T04:10:21.633Z,3.47
2017-10-06T04:12:49.501Z,3.60
2017-10-06T04:15:17.368Z,3.65
2017-10-06T04:17:45.338Z,3.47
2017-10-06T04:20:13.646Z,3.10
2017-10-06T04:22:42.300Z,3.03
2017-10-06T04:25:10.168Z,3.55
2017-10-06T04:27:38.036Z,3.35
2017-10-06T04:30:05.843Z,3.22
2017-10-06T04:32:34.488Z,3.22
2017-10-06T04:35:02.354Z,3.17
2017-10-06T04:37:30.222Z,3.45
2017-10-06T04:39:58.095Z,3.28
2017-10-06T04:42:25.957Z,3.20
2017-10-06T04:44:53.828Z,2.80
2017-10-06T04:47:21.692Z,3.60
2017-10-06T04:49:49.457Z,2.90
2017-10-06T04:52:17.324Z,2.50
2017-10-06T04:54:45.191Z,2.50
2017-10-06T04:57:13.058Z,2.25
2017-10-06T04:59:40.926Z,2.35
2017-10-06T05:02:08.817Z,2.28
2017-10-06T05:04:37.583Z,2.85
2017-10-06T05:07:05.449Z,3.47
2017-10-06T05:09:33.316Z,3.00
2017-10-06T05:12:01.183Z,3.37
2017-10-06T05:14:29.068Z,3.33
2017-10-06T05:16:56.921Z,2.90
2017-10-06T05:19:24.788Z,3.20
2017-10-06T05:21:52.654Z,3.03
2017-10-06T05:24:20.524Z,2.92
2017-10-06T05:26:48.492Z,3.17
2017-10-06T05:29:16.359Z,2.97
2017-10-06T05:31:44.228Z,2.95
2017-10-06T05:34:12.098Z,3.08
2017-10-06T05:36:39.959Z,3.10
2017-10-06T05:39:07.826Z,3.30
2017-10-06T05:41:35.694Z,3.05
2017-10-06T05:44:03.562Z,3.10
2017-10-06T05:46:31.429Z,3.20
2017-10-06T05:48:59.295Z,2.75
2017-10-06T05:51:27.163Z,3.28
2017-10-06T05:53:55.031Z,2.75
2017-10-06T05:56:22.898Z,3.22
2017-10-06T05:58:50.764Z,3.00
2017-10-06T06:01:18.633Z,3.03
2017-10-06T06:03:46.499Z,3.35
2017-10-06T06:06:14.367Z,3.90
2017-10-06T06:08:42.336Z,3.03
2017-10-06T06:11:10.204Z,3.22
2017-10-06T06:13:38.070Z,3.15
2017-10-06T06:16:05.939Z,3.22
2017-10-06T06:18:33.806Z,3.62
2017-10-06T06:21:01.673Z,3.20
2017-10-06T06:23:29.540Z,3.00
2017-10-06T06:25:57.509Z,3.20
2017-10-06T06:28:25.377Z,3.60
2017-10-06T06:30:53.244Z,3.00
2017-10-06T06:33:21.316Z,3.25
2017-10-06T06:35:49.181Z,3.25
2017-10-06T06:38:17.054Z,3.25
2017-10-06T06:40:44.918Z,2.80
2017-10-06T06:43:12.786Z,3.10
2017-10-06T06:45:40.653Z,2.97
2017-10-06T06:48:08.521Z,2.72
2017-10-06T06:50:36.387Z,3.35
2017-10-06T06:53:04.256Z,3.50
2017-10-06T06:55:32.128Z,3.35
2017-10-06T06:57:59.990Z,3.33
2017-10-06T07:00:27.964Z,3.30
2017-10-06T07:02:55.827Z,3.53
2017-10-06T07:05:23.694Z,2.67
2017-10-06T07:07:51.561Z,4.65
2017-10-06T07:10:19.532Z,3.87
2017-10-06T07:12:47.502Z,3.53
2017-10-06T07:15:15.470Z,3.92
2017-10-06T07:17:43.338Z,3.37
2017-10-06T07:20:11.206Z,3.95
2017-10-06T07:22:39.175Z,3.50
2017-10-06T07:25:07.043Z,3.33
2017-10-06T07:27:34.909Z,3.95
2017-10-06T07:30:02.781Z,3.42
2017-10-06T07:32:30.643Z,3.17
2017-10-06T07:34:58.511Z,4.00
2017-10-06T07:37:26.378Z,3.55
2017-10-06T07:39:54.246Z,4.15
2017-10-06T07:42:22.115Z,3.75
2017-10-06T07:44:49.980Z,3.72
2017-10-06T07:47:17.857Z,3.55
2017-10-06T07:49:45.715Z,4.10
2017-10-06T07:52:13.583Z,4.37
2017-10-06T07:54:41.450Z,3.70
2017-10-06T07:57:09.317Z,4.40
2017-10-06T07:59:37.287Z,4.55
2017-10-06T08:02:05.155Z,3.83
2017-10-06T08:04:33.124Z,4.35
2017-10-06T08:07:00.991Z,4.10
2017-10-06T08:09:28.858Z,4.57
2017-10-06T08:11:56.828Z,3.85
2017-10-06T08:14:24.696Z,4.37
2017-10-06T08:16:52.768Z,4.45
2017-10-06T08:19:20.639Z,4.70
2017-10-06T08:21:48.503Z,4.47
2017-10-06T08:24:16.472Z,4.40
2017-10-06T08:26:44.446Z,4.87
2017-10-06T08:29:12.312Z,4.90
2017-10-06T08:31:40.179Z,4.95
2017-10-06T08:34:08.048Z,4.60
2017-10-06T08:36:35.915Z,5.28
2017-10-06T08:39:03.883Z,4.72
2017-10-06T08:41:31.753Z,4.10
2017-10-06T08:43:59.616Z,4.47
2017-10-06T08:46:27.483Z,3.90
2017-10-06T08:48:55.349Z,4.25
2017-10-06T08:51:23.218Z,3.97
2017-10-06T08:53:51.084Z,3.65
2017-10-06T08:56:18.951Z,3.90
2017-10-06T08:58:46.819Z,3.90
2017-10-06T09:01:14.686Z,4.12
2017-10-06T09:03:42.656Z,3.65
2017-10-06T09:06:10.523Z,3.08
2017-10-06T09:08:38.392Z,3.08
2017-10-06T09:11:06.258Z,2.85
2017-10-06T09:13:34.125Z,2.35
2017-10-06T09:16:02.023Z,2.55
2017-10-06T09:18:30.679Z,2.80
2017-10-06T09:20:58.546Z,4.18
2017-10-06T09:23:26.414Z,2.30
2017-10-06T09:25:54.281Z,2.45
2017-10-06T09:28:22.152Z,2.53
2017-10-06T09:30:50.017Z,2.20
2017-10-06T09:33:17.882Z,2.10
2017-10-06T09:35:45.750Z,2.30
2017-10-06T09:38:13.617Z,2.15
2017-10-06T09:40:41.485Z,2.00
2017-10-06T09:43:09.351Z,1.83
2017-10-06T09:45:37.220Z,1.65
2017-10-06T09:48:05.086Z,2.30
2017-10-06T09:50:32.955Z,2.17
2017-10-06T09:53:00.821Z,2.50
2017-10-06T09:55:28.689Z,2.30
2017-10-06T09:57:56.488Z,3.03
2017-10-06T10:00:25.140Z,3.45
2017-10-06T10:02:53.110Z,2.50
2017-10-06T10:05:20.978Z,3.05
2017-10-06T10:07:48.844Z,2.50
2017-10-06T10:10:16.814Z,2.65
2017-10-06T10:12:44.681Z,3.12
2017-10-06T10:15:12.549Z,2.42
2017-10-06T10:17:40.416Z,2.58
2017-10-06T10:20:08.288Z,2.70
2017-10-06T10:22:36.152Z,2.60
2017-10-06T10:25:04.018Z,3.17
2017-10-06T10:27:31.886Z,3.25
2017-10-06T10:29:59.757Z,2.83
2017-10-06T10:32:27.723Z,3.00
2017-10-06T10:34:55.589Z,3.25
2017-10-06T10:37:23.458Z,3.20
2017-10-06T10:39:51.324Z,3.58
2017-10-06T10:42:19.195Z,2.92
2017-10-06T10:44:47.059Z,3.53
2017-10-06T10:47:14.926Z,4.00
2017-10-06T10:49:42.896Z,3.03
2017-10-06T10:52:10.866Z,3.28
2017-10-06T10:54:38.733Z,3.47
2017-10-06T10:57:06.600Z,3.90
2017-10-06T10:59:34.468Z,3.25
2017-10-06T11:02:02.334Z,3.50
2017-10-06T11:04:30.304Z,2.55
2017-10-06T11:06:58.274Z,2.50
2017-10-06T11:09:26.244Z,2.62
2017-10-06T11:11:54.217Z,2.30
2017-10-06T11:14:22.081Z,1.70
2017-10-06T11:16:50.051Z,2.00
2017-10-06T11:19:18.022Z,2.10
2017-10-06T11:21:45.889Z,1.60
2017-10-06T11:24:13.688Z,1.83
2017-10-06T11:26:42.340Z,1.85
2017-10-06T11:29:10.309Z,1.85
2017-10-06T11:31:38.177Z,1.55
2017-10-06T11:34:06.146Z,1.80
2017-10-06T11:36:34.127Z,1.83
2017-10-06T11:39:02.090Z,1.85
2017-10-06T11:41:30.059Z,2.00
2017-10-06T11:43:58.025Z,1.70
2017-10-06T11:46:26.000Z,2.97
2017-10-06T11:48:53.975Z,2.10
2017-10-06T11:51:21.938Z,2.67
2017-10-06T11:53:49.905Z,1.75
2017-10-06T11:56:17.874Z,1.65
2017-10-06T11:58:45.741Z,1.50
2017-10-06T12:01:13.610Z,1.50
2017-10-06T12:03:41.476Z,2.03
2017-10-06T12:06:09.343Z,1.90
2017-10-06T12:08:37.312Z,1.42
2017-10-06T12:11:05.180Z,1.30
2017-10-06T12:13:33.150Z,1.55
2017-10-06T12:16:01.017Z,1.80
2017-10-06T12:18:28.884Z,1.70
2017-10-06T12:20:56.752Z,2.05
2017-10-06T12:23:24.721Z,1.58
2017-10-06T12:25:52.690Z,2.20
2017-10-06T12:28:20.660Z,1.92
2017-10-06T12:30:48.529Z,1.95
2017-10-06T12:33:16.395Z,2.30
2017-10-06T12:35:44.365Z,1.62
2017-10-06T12:38:12.232Z,2.40
2017-10-06T12:40:40.099Z,1.83
2017-10-06T12:43:08.208Z,1.83
2017-10-06T12:45:36.857Z,1.90
2017-10-06T12:48:04.726Z,2.00
2017-10-06T12:50:32.695Z,1.90
2017-10-06T12:53:00.563Z,2.35
2017-10-06T12:55:28.429Z,1.95
2017-10-06T12:57:56.399Z,2.00
2017-10-06T13:00:24.267Z,2.05
2017-10-06T13:02:52.135Z,1.87
2017-10-06T13:05:20.001Z,2.15
2017-10-06T13:07:47.868Z,1.70
2017-10-06T13:10:15.735Z,2.78
2017-10-06T13:12:43.604Z,2.72
2017-10-06T13:15:11.471Z,1.45
2017-10-06T13:17:39.338Z,1.48
2017-10-06T13:20:07.201Z,1.70
2017-10-06T13:22:35.002Z,1.80
2017-10-06T13:25:03.658Z,1.55
2017-10-06T13:27:31.525Z,1.77
2017-10-06T13:29:59.391Z,1.70
2017-10-06T13:32:27.259Z,1.70
2017-10-06T13:34:55.126Z,1.58
2017-10-06T13:37:22.993Z,1.60
2017-10-06T13:39:50.861Z,1.85
2017-10-06T13:42:18.730Z,1.95
2017-10-06T13:44:46.595Z,1.75
2017-10-06T13:47:14.462Z,2.50
2017-10-06T13:49:42.432Z,2.00
2017-10-06T13:52:10.304Z,1.62
2017-10-06T13:54:38.170Z,1.70
2017-10-06T13:57:06.035Z,1.70
2017-10-06T13:59:33.901Z,1.60
2017-10-06T14:02:01.769Z,2.00
2017-10-06T14:04:29.635Z,2.00
2017-10-06T14:06:57.505Z,2.00
2017-10-06T14:09:25.372Z,1.85
2017-10-06T14:11:53.238Z,1.85
2017-10-06T14:14:21.105Z,1.90
2017-10-06T14:16:48.972Z,1.80
2017-10-06T14:19:16.840Z,1.75
2017-10-06T14:21:44.708Z,2.08
2017-10-06T14:24:12.607Z,1.67
2017-10-06T14:26:41.364Z,1.80
2017-10-06T14:29:09.233Z,2.15
2017-10-06T14:31:37.098Z,2.08
2017-10-06T14:34:04.968Z,1.90
2017-10-06T14:36:32.833Z,2.47
2017-10-06T14:39:00.701Z,1.70
2017-10-06T14:41:28.568Z,1.60
2017-10-06T14:43:56.434Z,1.70
2017-10-06T14:46:24.301Z,2.28
2017-10-06T14:48:52.175Z,1.50
2017-10-06T14:51:20.040Z,2.17
2017-10-06T14:53:47.905Z,1.65
2017-10-06T14:56:16.595Z,1.60
2017-10-06T14:58:44.462Z,2.03
2017-10-06T15:01:12.328Z,1.60
2017-10-06T15:03:40.196Z,1.52
2017-10-06T15:06:08.062Z,1.60
2017-10-06T15:08:35.926Z,1.35
2017-10-06T15:11:03.795Z,1.50
2017-10-06T15:13:31.662Z,1.60
2017-10-06T15:15:59.537Z,1.55
2017-10-06T15:18:27.396Z,1.55
2017-10-06T15:20:55.266Z,1.90
2017-10-06T15:23:23.757Z,1.73
2017-10-06T15:25:51.617Z,2.70
2017-10-06T15:28:19.481Z,1.65
2017-10-06T15:30:47.451Z,2.20
2017-10-06T15:33:15.316Z,1.85
2017-10-06T15:35:43.186Z,1.65
2017-10-06T15:38:11.052Z,2.28
2017-10-06T15:40:38.919Z,2.20
2017-10-06T15:43:06.785Z,2.10
2017-10-06T15:45:34.653Z,1.62
2017-10-06T15:48:02.520Z,1.90
2017-10-06T15:50:30.387Z,1.60
2017-10-06T15:52:58.255Z,2.33
2017-10-06T15:55:26.129Z,2.28
2017-10-06T15:57:53.991Z,2.20
2017-10-06T16:00:21.858Z,2.22
2017-10-06T16:02:49.930Z,2.45
2017-10-06T16:05:17.796Z,1.90
2017-10-06T16:07:45.663Z,2.97
2017-10-06T16:10:13.532Z,2.17
2017-10-06T16:12:41.413Z,2.12
2017-10-06T16:15:09.278Z,1.92
2017-10-06T16:17:37.236Z,1.90
2017-10-06T16:20:05.104Z,1.92
2017-10-06T16:22:32.970Z,2.00
2017-10-06T16:25:00.837Z,1.70
2017-10-06T16:27:28.705Z,2.20
2017-10-06T16:29:57.392Z,1.85
2017-10-06T16:32:25.259Z,1.90
2017-10-06T16:34:53.127Z,1.90
2017-10-06T16:37:20.994Z,1.92
2017-10-06T16:39:48.861Z,1.95
2017-10-06T16:42:16.728Z,2.30
2017-10-06T16:44:44.595Z,2.20
2017-10-06T16:47:12.464Z,2.42
2017-10-06T16:49:40.330Z,2.30
2017-10-06T16:52:08.197Z,2.20
2017-10-06T16:54:36.065Z,2.10
2017-10-06T16:57:03.932Z,2.00
2017-10-06T16:59:31.799Z,2.00
2017-10-06T17:01:59.667Z,2.20
2017-10-06T17:04:27.533Z,1.70
2017-10-06T17:06:55.402Z,1.95
2017-10-06T17:09:23.269Z,1.80
2017-10-06T17:11:51.136Z,2.35
2017-10-06T17:14:19.004Z,2.25
2017-10-06T17:16:46.871Z,1.87
2017-10-06T17:19:14.738Z,2.00
2017-10-06T17:21:42.605Z,2.08
2017-10-06T17:24:10.473Z,2.20
2017-10-06T17:26:38.340Z,2.37
2017-10-06T17:29:06.208Z,2.53
2017-10-06T17:31:34.075Z,2.08
2017-10-06T17:34:01.942Z,2.42
2017-10-06T17:36:29.809Z,2.25
2017-10-06T17:38:57.676Z,2.50
2017-10-06T17:41:25.544Z,2.25
2017-10-06T17:43:53.411Z,1.95
2017-10-06T17:46:21.278Z,1.85
2017-10-06T17:48:49.146Z,2.12
2017-10-06T17:51:17.013Z,2.00
2017-10-06T17:53:44.879Z,2.50
2017-10-06T17:56:12.748Z,2.05
2017-10-06T17:58:40.620Z,2.97
2017-10-06T18:01:08.488Z,2.10
2017-10-06T18:03:36.559Z,2.00
2017-10-06T18:06:04.430Z,1.85
2017-10-06T18:08:32.292Z,2.33
2017-10-06T18:11:00.165Z,2.22
2017-10-06T18:13:28.027Z,1.95
2017-10-06T18:15:55.891Z,2.40
2017-10-06T18:18:23.759Z,2.10
2017-10-06T18:20:51.728Z,2.50
2017-10-06T18:23:19.595Z,3.35
2017-10-06T18:25:47.462Z,2.62
2017-10-06T18:28:15.330Z,2.30
2017-10-06T18:30:43.299Z,2.78
2017-10-06T18:33:11.167Z,2.85
2017-10-06T18:35:39.034Z,3.53
2017-10-06T18:38:06.902Z,2.62
2017-10-06T18:40:34.769Z,2.20
2017-10-06T18:43:02.636Z,2.65
2017-10-06T18:45:30.504Z,2.90
2017-10-06T18:47:58.371Z,2.85
2017-10-06T18:50:26.238Z,3.20
2017-10-06T18:52:54.105Z,2.40
2017-10-06T18:55:21.973Z,3.05
2017-10-06T18:57:49.839Z,3.70
2017-10-06T19:00:17.810Z,3.10
2017-10-06T19:02:45.677Z,3.10
2017-10-06T19:05:13.476Z,2.87
2017-10-06T19:07:42.128Z,3.10
2017-10-06T19:10:09.996Z,2.87
2017-10-06T19:12:37.863Z,2.92
2017-10-06T19:15:05.731Z,3.62
2017-10-06T19:17:33.597Z,2.70
2017-10-06T19:20:02.707Z,2.90
2017-10-06T19:22:30.561Z,2.78
2017-10-06T19:25:00.395Z,2.85
2017-10-06T19:27:28.446Z,2.75
2017-10-06T19:29:56.321Z,2.50
2017-10-06T19:32:24.184Z,3.05
2017-10-06T19:34:52.392Z,3.00
2017-10-06T19:37:21.046Z,2.78
2017-10-06T19:39:48.910Z,3.10
2017-10-06T19:42:16.777Z,2.67
2017-10-06T19:44:44.644Z,2.45
2017-10-06T19:47:12.614Z,2.25
2017-10-06T19:49:41.032Z,2.60
2017-10-06T19:52:08.966Z,2.50
2017-10-06T19:54:36.932Z,2.40
2017-10-06T19:57:04.800Z,2.33
2017-10-06T19:59:32.667Z,2.17
2017-10-06T20:02:00.535Z,2.65
2017-10-06T20:04:28.402Z,2.60
2017-10-06T20:06:56.269Z,3.65
2017-10-06T20:09:24.135Z,2.90
2017-10-06T20:11:52.003Z,3.17
2017-10-06T20:14:19.871Z,2.67
2017-10-06T20:16:47.737Z,2.87
2017-10-06T20:19:15.606Z,3.08
2017-10-06T20:21:43.474Z,2.90
2017-10-06T20:24:11.340Z,2.75
2017-10-06T20:26:39.208Z,2.95
2017-10-06T20:29:07.074Z,3.00
2017-10-06T20:31:34.955Z,4.47
2017-10-06T20:34:02.809Z,3.10
2017-10-06T20:36:30.681Z,3.03
2017-10-06T20:38:58.544Z,3.70
2017-10-06T20:41:26.412Z,3.58
2017-10-06T20:43:54.381Z,3.45
2017-10-06T20:46:22.350Z,4.62
2017-10-06T20:48:50.217Z,3.80
2017-10-06T20:51:18.085Z,5.00
2017-10-06T20:53:45.952Z,3.70
2017-10-06T20:56:13.819Z,3.83
2017-10-06T20:58:41.687Z,4.70
2017-10-06T21:01:09.553Z,3.95
2017-10-06T21:03:37.421Z,3.35
2017-10-06T21:06:05.288Z,4.05
2017-10-06T21:08:33.160Z,3.40
2017-10-06T21:11:01.028Z,3.40
2017-10-06T21:13:28.892Z,3.70
2017-10-06T21:15:56.762Z,3.60
2017-10-06T21:18:24.630Z,4.30
2017-10-06T21:20:52.493Z,4.05
2017-10-06T21:23:20.362Z,4.95
2017-10-06T21:25:48.230Z,4.05
2017-10-06T21:28:16.095Z,4.05
2017-10-06T21:30:43.961Z,7.12
2017-10-06T21:33:11.830Z,5.15
2017-10-06T21:35:39.695Z,4.87
2017-10-06T21:38:07.563Z,6.28
2017-10-06T21:40:35.431Z,5.12
2017-10-06T21:43:03.298Z,4.78
2017-10-06T21:45:31.166Z,5.20
2017-10-06T21:47:59.032Z,5.18
2017-10-06T21:50:27.004Z,4.37
2017-10-06T21:52:54.869Z,5.15
2017-10-06T21:55:22.839Z,5.10
2017-10-06T21:57:50.706Z,4.53
2017-10-06T22:00:21.441Z,4.93
2017-10-06T22:02:49.309Z,4.75
2017-10-06T22:05:17.176Z,4.60
2017-10-06T22:07:45.043Z,4.28
2017-10-06T22:10:12.845Z,4.62
2017-10-06T22:12:41.496Z,5.35
2017-10-06T22:15:09.362Z,4.45
2017-10-06T22:17:37.229Z,5.10
2017-10-06T22:20:05.097Z,4.30
2017-10-06T22:22:32.964Z,4.68
2017-10-06T22:25:00.832Z,4.40
2017-10-06T22:27:28.698Z,4.65
2017-10-06T22:29:56.566Z,3.95
2017-10-06T22:32:24.433Z,4.43
2017-10-06T22:34:52.301Z,4.07
2017-10-06T22:37:20.167Z,4.50
2017-10-06T22:39:48.035Z,3.40
2017-10-06T22:42:15.902Z,3.80
2017-10-06T22:44:43.769Z,3.35
2017-10-06T22:47:11.637Z,3.53
2017-10-06T22:49:39.506Z,3.45
2017-10-06T22:52:07.474Z,4.40
2017-10-06T22:54:35.341Z,4.68
2017-10-06T22:57:03.134Z,3.75
2017-10-06T22:59:30.977Z,4.25
2017-10-06T23:01:58.841Z,3.47
2017-10-06T23:04:26.708Z,4.50
2017-10-06T23:06:54.575Z,3.40
2017-10-06T23:09:22.442Z,3.40
2017-10-06T23:11:50.310Z,3.53
2017-10-06T23:14:18.177Z,3.65
2017-10-06T23:16:46.044Z,3.12
2017-10-06T23:19:13.911Z,3.78
2017-10-06T23:21:41.779Z,3.47
2017-10-06T23:24:09.649Z,4.78
2017-10-06T23:26:37.513Z,3.70
2017-10-06T23:29:05.379Z,3.95
2017-10-06T23:31:33.248Z,3.15
2017-10-06T23:34:01.115Z,3.40
2017-10-06T23:36:28.982Z,2.62
2017-10-06T23:38:56.851Z,2.95
2017-10-06T23:41:24.846Z,3.05
2017-10-06T23:43:52.688Z,3.53
2017-10-06T23:46:20.554Z,2.70
2017-10-06T23:48:48.422Z,3.47
2017-10-06T23:51:16.289Z,3.15
2017-10-06T23:53:44.157Z,2.75
2017-10-06T23:56:12.025Z,2.92
2017-10-06T23:58:39.890Z,2.95
